createdAt,value
2023-03-03T00:01:04.839Z,7.30
2023-03-03T00:03:33.392Z,8.00
2023-03-03T00:06:04.008Z,7.80
2023-03-03T00:08:32.803Z,6.90
2023-03-03T00:11:03.155Z,7.37
2023-03-03T00:13:32.138Z,7.70
2023-03-03T00:16:14.529Z,8.00
2023-03-03T00:18:44.273Z,7.53
2023-03-03T00:21:25.692Z,7.27
2023-03-03T00:23:55.231Z,7.63
2023-03-03T00:26:24.933Z,7.90
2023-03-03T00:28:54.590Z,7.50
2023-03-03T00:31:24.691Z,7.83
2023-03-03T00:33:54.853Z,8.70
2023-03-03T00:36:32.795Z,8.73
2023-03-03T00:39:17.483Z,8.57
2023-03-03T00:41:45.412Z,8.90
2023-03-03T00:44:33.594Z,8.40
2023-03-03T00:47:04.582Z,8.53
2023-03-03T00:49:33.321Z,9.03
2023-03-03T00:52:02.711Z,8.40
2023-03-03T00:54:30.617Z,7.60
2023-03-03T00:56:58.429Z,8.60
2023-03-03T00:59:26.346Z,9.07
2023-03-03T01:01:54.322Z,9.17
2023-03-03T01:04:22.276Z,8.97
2023-03-03T01:06:50.166Z,8.90
2023-03-03T01:09:19.473Z,9.40
2023-03-03T01:11:47.446Z,8.77
2023-03-03T01:14:16.796Z,9.33
2023-03-03T01:16:44.617Z,9.00
2023-03-03T01:19:12.513Z,8.73
2023-03-03T01:21:40.791Z,9.20
2023-03-03T01:24:08.792Z,9.67
2023-03-03T01:26:38.247Z,10.60
2023-03-03T01:29:06.532Z,9.33
2023-03-03T01:31:34.911Z,9.50
2023-03-03T01:34:02.816Z,10.10
2023-03-03T01:36:31.087Z,10.50
2023-03-03T01:38:58.915Z,9.40
2023-03-03T01:41:28.986Z,11.40
2023-03-03T01:43:58.260Z,10.33
2023-03-03T01:46:47.986Z,10.40
2023-03-03T01:49:17.585Z,10.83
2023-03-03T01:51:50.283Z,10.17
2023-03-03T01:54:21.741Z,9.93
2023-03-03T01:56:51.537Z,10.77
2023-03-03T01:59:23.064Z,10.70
2023-03-03T02:01:51.370Z,10.70
2023-03-03T02:04:21.883Z,11.37
2023-03-03T02:06:53.937Z,10.20
2023-03-03T02:09:28.866Z,10.70
2023-03-03T02:12:00.620Z,11.03
2023-03-03T02:14:29.874Z,11.60
2023-03-03T02:16:57.806Z,10.87
2023-03-03T02:19:32.885Z,10.30
2023-03-03T02:22:02.145Z,11.60
2023-03-03T02:24:35.451Z,11.27
2023-03-03T02:27:04.877Z,10.90
2023-03-03T02:29:32.886Z,11.37
2023-03-03T02:32:01.165Z,10.80
2023-03-03T02:34:29.070Z,11.10
2023-03-03T02:36:56.891Z,11.93
2023-03-03T02:39:26.573Z,11.93
2023-03-03T02:41:56.976Z,11.97
2023-03-03T02:44:32.563Z,11.80
2023-03-03T02:47:01.356Z,10.70
2023-03-03T02:49:30.947Z,11.37
2023-03-03T02:51:59.645Z,12.10
2023-03-03T02:54:30.240Z,11.57
2023-03-03T02:56:59.239Z,10.70
2023-03-03T02:59:28.220Z,12.43
2023-03-03T03:01:59.307Z,11.63
2023-03-03T03:04:28.054Z,12.80
2023-03-03T03:06:57.401Z,11.93
2023-03-03T03:09:28.607Z,11.83
2023-03-03T03:11:56.877Z,12.63
2023-03-03T03:14:27.028Z,12.80
2023-03-03T03:16:55.953Z,11.70
2023-03-03T03:19:25.208Z,13.23
2023-03-03T03:21:53.064Z,12.93
2023-03-03T03:24:21.845Z,13.67
2023-03-03T03:26:56.234Z,13.10
2023-03-03T03:29:25.466Z,13.80
2023-03-03T03:31:54.000Z,14.27
2023-03-03T03:34:21.940Z,14.50
2023-03-03T03:36:53.086Z,14.53
2023-03-03T03:39:23.247Z,15.40
2023-03-03T03:41:52.715Z,14.87
2023-03-03T03:44:20.556Z,14.50
2023-03-03T03:46:49.232Z,14.93
2023-03-03T03:49:18.384Z,15.73
2023-03-03T03:51:47.884Z,16.93
2023-03-03T03:54:20.722Z,16.80
2023-03-03T03:56:48.705Z,16.17
2023-03-03T03:59:16.607Z,16.60
2023-03-03T04:01:44.540Z,16.90
2023-03-03T04:04:12.492Z,17.00
2023-03-03T04:06:41.045Z,18.20
2023-03-03T04:09:09.375Z,16.97
2023-03-03T04:11:38.663Z,18.43
2023-03-03T04:14:08.381Z,17.70
2023-03-03T04:16:37.353Z,18.77
2023-03-03T04:19:05.254Z,18.83
2023-03-03T04:21:35.078Z,20.10
2023-03-03T04:24:03.732Z,18.90
2023-03-03T04:26:32.207Z,17.40
2023-03-03T04:29:03.179Z,18.87
2023-03-03T04:31:31.301Z,19.10
2023-03-03T04:34:00.043Z,20.40
2023-03-03T04:36:28.726Z,20.40
2023-03-03T04:38:56.733Z,19.10
2023-03-03T04:41:24.556Z,20.40
2023-03-03T04:43:52.433Z,22.03
2023-03-03T04:46:21.690Z,21.37
2023-03-03T04:48:49.641Z,20.77
2023-03-03T04:51:18.703Z,21.37
2023-03-03T04:53:46.833Z,20.53
2023-03-03T04:56:15.154Z,20.60
2023-03-03T04:58:43.311Z,21.17
2023-03-03T05:01:13.940Z,19.60
2023-03-03T05:03:43.403Z,20.43
2023-03-03T05:06:11.292Z,21.97
2023-03-03T05:08:39.157Z,19.87
2023-03-03T05:11:07.405Z,22.77
2023-03-03T05:13:35.232Z,21.80
2023-03-03T05:16:03.207Z,24.57
2023-03-03T05:18:31.127Z,21.30
2023-03-03T05:21:00.434Z,24.27
2023-03-03T05:23:28.308Z,21.53
2023-03-03T05:25:56.159Z,20.63
2023-03-03T05:28:24.031Z,22.80
2023-03-03T05:30:52.215Z,21.40
2023-03-03T05:33:20.128Z,23.20
2023-03-03T05:35:48.019Z,21.90
2023-03-03T05:38:17.363Z,22.43
2023-03-03T05:40:45.344Z,22.97
2023-03-03T05:43:13.186Z,23.93
2023-03-03T05:45:41.099Z,23.97
2023-03-03T05:48:10.222Z,24.03
2023-03-03T05:50:38.744Z,23.83
2023-03-03T05:53:06.721Z,24.10
2023-03-03T05:55:35.956Z,23.60
2023-03-03T05:58:03.786Z,24.60
2023-03-03T06:00:31.595Z,24.90
2023-03-03T06:02:59.510Z,26.17
2023-03-03T06:05:27.702Z,24.90
2023-03-03T06:07:55.615Z,25.30
2023-03-03T06:10:23.476Z,25.73
2023-03-03T06:12:56.228Z,25.47
2023-03-03T06:15:24.863Z,26.20
2023-03-03T06:17:53.225Z,24.43
2023-03-03T06:20:21.294Z,24.10
2023-03-03T06:22:49.169Z,25.90
2023-03-03T06:25:17.352Z,25.67
2023-03-03T06:27:45.312Z,27.70
2023-03-03T06:30:15.283Z,25.27
2023-03-03T06:32:43.229Z,24.60
2023-03-03T06:35:11.272Z,25.83
2023-03-03T06:37:39.191Z,25.40
2023-03-03T06:40:08.636Z,25.60
2023-03-03T06:42:37.910Z,25.23
2023-03-03T06:45:06.513Z,24.23
2023-03-03T06:47:35.743Z,26.67
2023-03-03T06:50:03.541Z,26.83
2023-03-03T06:52:31.389Z,25.87
2023-03-03T06:55:00.720Z,25.60
2023-03-03T06:57:30.526Z,24.60
2023-03-03T06:59:59.936Z,28.10
2023-03-03T07:02:27.812Z,25.20
2023-03-03T07:04:57.907Z,24.80
2023-03-03T07:07:27.162Z,26.00
2023-03-03T07:09:56.459Z,25.70
2023-03-03T07:12:25.920Z,25.57
2023-03-03T07:14:59.329Z,26.40
2023-03-03T07:17:27.550Z,25.90
2023-03-03T07:19:55.432Z,26.63
2023-03-03T07:22:26.808Z,25.77
2023-03-03T07:24:56.311Z,26.23
2023-03-03T07:27:28.797Z,25.37
2023-03-03T07:30:13.660Z,26.80
2023-03-03T07:32:44.081Z,25.80
2023-03-03T07:35:30.860Z,27.30
2023-03-03T07:38:00.557Z,24.00
2023-03-03T07:40:36.127Z,23.43
2023-03-03T07:43:29.104Z,25.53
2023-03-03T07:46:02.729Z,24.70
2023-03-03T07:48:33.093Z,25.33
2023-03-03T07:51:05.200Z,23.90
2023-03-03T07:53:38.082Z,25.00
2023-03-03T07:56:17.166Z,24.10
2023-03-03T07:58:45.485Z,24.00
2023-03-03T08:01:42.562Z,24.33
2023-03-03T08:04:30.272Z,24.57
2023-03-03T08:06:59.438Z,24.17
2023-03-03T08:09:51.023Z,25.20
2023-03-03T08:12:39.897Z,23.70
2023-03-03T08:15:23.098Z,23.87
2023-03-03T08:17:52.080Z,23.97
2023-03-03T08:20:45.558Z,23.83
2023-03-03T08:23:14.192Z,22.93
2023-03-03T08:25:43.675Z,23.03
2023-03-03T08:28:12.584Z,23.40
2023-03-03T08:30:40.602Z,23.73
2023-03-03T08:33:08.595Z,22.63
2023-03-03T08:35:36.736Z,24.90
2023-03-03T08:38:04.869Z,23.30
2023-03-03T08:40:33.061Z,24.70
2023-03-03T08:43:06.137Z,22.30
2023-03-03T08:45:34.499Z,24.30
2023-03-03T08:48:04.159Z,25.37
2023-03-03T08:50:33.764Z,24.57
2023-03-03T08:53:01.616Z,27.20
2023-03-03T08:55:29.860Z,26.60
2023-03-03T08:57:57.929Z,23.23
2023-03-03T09:00:27.563Z,25.80
2023-03-03T09:02:56.708Z,23.60
2023-03-03T09:05:25.499Z,25.67
2023-03-03T09:07:54.045Z,25.20
2023-03-03T09:10:27.562Z,23.10
2023-03-03T09:12:58.237Z,25.00
2023-03-03T09:15:29.057Z,23.20
2023-03-03T09:17:59.114Z,25.23
2023-03-03T09:20:36.174Z,23.43
2023-03-03T09:23:25.638Z,24.47
2023-03-03T09:25:53.812Z,23.50
2023-03-03T09:28:25.620Z,23.60
2023-03-03T09:30:56.331Z,21.77
2023-03-03T09:33:30.378Z,24.63
2023-03-03T09:36:04.671Z,23.70
2023-03-03T09:38:34.054Z,22.70
2023-03-03T09:41:17.482Z,23.53
2023-03-03T09:43:57.097Z,22.37
2023-03-03T09:46:32.599Z,22.70
2023-03-03T09:49:08.112Z,22.77
2023-03-03T09:52:01.295Z,24.37
2023-03-03T09:54:44.343Z,21.93
2023-03-03T09:57:15.897Z,22.13
2023-03-03T09:59:53.191Z,22.80
2023-03-03T10:02:32.417Z,21.00
2023-03-03T10:05:30.141Z,21.97
2023-03-03T10:08:07.601Z,21.60
2023-03-03T10:10:47.084Z,22.03
2023-03-03T10:13:24.265Z,22.90
2023-03-03T10:16:06.116Z,21.27
2023-03-03T10:18:40.801Z,21.80
2023-03-03T10:21:11.835Z,22.83
2023-03-03T10:23:58.695Z,21.53
2023-03-03T10:26:45.721Z,24.23
2023-03-03T10:29:37.086Z,20.83
2023-03-03T10:32:25.858Z,21.77
2023-03-03T10:35:12.907Z,22.07
2023-03-03T10:37:48.909Z,22.57
2023-03-03T10:40:23.139Z,22.50
2023-03-03T10:43:31.138Z,20.97
2023-03-03T10:46:20.650Z,20.47
2023-03-03T10:49:04.552Z,20.40
2023-03-03T10:51:42.385Z,21.67
2023-03-03T10:54:30.510Z,21.10
2023-03-03T10:57:04.537Z,20.77
2023-03-03T10:59:45.433Z,21.67
2023-03-03T11:02:19.429Z,19.80
2023-03-03T11:05:00.227Z,19.17
2023-03-03T11:07:34.431Z,21.93
2023-03-03T11:10:22.658Z,20.13
2023-03-03T11:12:58.746Z,20.33
2023-03-03T11:15:43.514Z,20.70
2023-03-03T11:18:17.190Z,21.20
2023-03-03T11:20:52.742Z,19.97
2023-03-03T11:23:36.545Z,22.23
2023-03-03T11:26:10.626Z,20.23
2023-03-03T11:28:52.986Z,19.80
2023-03-03T11:31:26.351Z,21.07
2023-03-03T11:34:01.544Z,20.07
2023-03-03T11:36:34.808Z,20.80
2023-03-03T11:39:06.286Z,20.40
2023-03-03T11:41:37.686Z,19.80
2023-03-03T11:44:12.571Z,20.27
2023-03-03T11:46:44.189Z,19.27
2023-03-03T11:49:17.187Z,20.33
2023-03-03T11:51:52.078Z,19.30
2023-03-03T11:54:26.353Z,18.97
2023-03-03T11:56:58.723Z,18.93
2023-03-03T11:59:39.239Z,17.73
2023-03-03T12:02:33.961Z,17.80
2023-03-03T12:05:08.122Z,19.37
2023-03-03T12:07:43.307Z,18.43
2023-03-03T12:10:21.507Z,19.00
2023-03-03T12:12:53.885Z,18.80
2023-03-03T12:15:29.071Z,18.43
2023-03-03T12:18:21.266Z,17.70
2023-03-03T12:20:53.725Z,16.50
2023-03-03T12:23:39.082Z,16.27
2023-03-03T12:26:12.641Z,16.60
2023-03-03T12:28:43.816Z,16.47
2023-03-03T12:31:25.319Z,16.87
2023-03-03T12:33:57.043Z,15.50
2023-03-03T12:36:38.757Z,16.63
2023-03-03T12:39:09.400Z,17.40
2023-03-03T12:41:42.009Z,15.47
2023-03-03T12:44:16.011Z,15.70
2023-03-03T12:46:47.410Z,15.07
2023-03-03T12:49:15.461Z,15.40
2023-03-03T12:51:52.060Z,16.33
2023-03-03T12:54:37.333Z,15.77
2023-03-03T12:57:14.211Z,15.00
2023-03-03T12:59:50.966Z,15.43
2023-03-03T13:02:43.894Z,13.93
2023-03-03T13:05:20.899Z,14.90
2023-03-03T13:07:56.540Z,14.83
2023-03-03T13:10:29.300Z,14.90
2023-03-03T13:13:02.886Z,15.07
2023-03-03T13:15:34.989Z,15.37
2023-03-03T13:18:19.233Z,14.60
2023-03-03T13:20:51.113Z,14.37
2023-03-03T13:23:29.105Z,14.60
2023-03-03T13:25:59.731Z,13.70
2023-03-03T13:28:33.164Z,13.50
2023-03-03T13:31:04.963Z,14.40
2023-03-03T13:33:35.864Z,13.03
2023-03-03T13:36:05.248Z,12.87
2023-03-03T13:38:37.117Z,12.83
2023-03-03T13:41:11.652Z,13.90
2023-03-03T13:43:46.043Z,13.00
2023-03-03T13:46:19.409Z,13.57
2023-03-03T13:49:05.562Z,13.50
2023-03-03T13:51:42.235Z,13.70
2023-03-03T13:54:17.115Z,13.57
2023-03-03T13:56:56.121Z,13.20
2023-03-03T13:59:31.086Z,12.57
2023-03-03T14:02:02.959Z,13.13
2023-03-03T14:04:34.374Z,12.73
2023-03-03T14:07:08.200Z,12.53
2023-03-03T14:09:46.071Z,12.40
2023-03-03T14:12:17.970Z,12.80
2023-03-03T14:14:55.828Z,12.10
2023-03-03T14:17:31.051Z,12.80
2023-03-03T14:20:07.323Z,12.67
2023-03-03T14:22:44.551Z,12.23
2023-03-03T14:25:13.741Z,12.93
2023-03-03T14:27:43.223Z,12.30
2023-03-03T14:30:30.296Z,11.93
2023-03-03T14:33:17.924Z,12.10
2023-03-03T14:35:51.436Z,11.70
2023-03-03T14:38:22.047Z,12.83
2023-03-03T14:40:50.671Z,12.20
2023-03-03T14:43:24.833Z,11.73
2023-03-03T14:45:55.217Z,11.17
2023-03-03T14:48:24.568Z,11.70
2023-03-03T14:50:54.022Z,11.60
2023-03-03T14:53:24.954Z,11.10
2023-03-03T14:55:54.143Z,11.23
2023-03-03T14:58:31.831Z,10.83
2023-03-03T15:01:15.450Z,10.83
2023-03-03T15:03:49.218Z,10.50
2023-03-03T15:06:38.338Z,10.90
2023-03-03T15:09:26.490Z,10.17
2023-03-03T15:11:55.380Z,11.37
2023-03-03T15:14:29.444Z,12.30
2023-03-03T15:17:17.595Z,13.47
2023-03-03T15:19:51.991Z,15.80
2023-03-03T15:22:26.498Z,20.50
2023-03-03T15:25:00.154Z,21.73
2023-03-03T15:27:31.310Z,20.17
2023-03-03T15:30:06.827Z,19.80
2023-03-03T15:32:43.400Z,17.87
2023-03-03T15:35:23.678Z,16.60
2023-03-03T15:37:56.307Z,13.60
2023-03-03T15:40:27.747Z,13.00
2023-03-03T15:43:02.565Z,13.70
2023-03-03T15:45:34.863Z,11.50
2023-03-03T15:48:15.580Z,9.30
2023-03-03T15:50:48.670Z,9.87
2023-03-03T15:53:28.669Z,8.90
2023-03-03T15:56:06.899Z,8.43
2023-03-03T15:58:51.205Z,7.50
2023-03-03T16:01:26.385Z,7.20
2023-03-03T16:03:57.437Z,7.33
2023-03-03T16:06:32.170Z,7.13
2023-03-03T16:09:04.495Z,8.03
2023-03-03T16:11:38.221Z,7.53
2023-03-03T16:14:19.591Z,7.87
2023-03-03T16:16:51.387Z,7.90
2023-03-03T16:19:34.331Z,7.63
2023-03-03T16:22:12.565Z,8.17
2023-03-03T16:24:46.889Z,7.60
2023-03-03T16:27:17.753Z,7.80
2023-03-03T16:29:58.447Z,8.00
2023-03-03T16:32:30.083Z,8.00
2023-03-03T16:35:01.663Z,8.20
2023-03-03T16:37:33.046Z,7.50
2023-03-03T16:40:09.003Z,7.90
2023-03-03T16:42:36.827Z,8.10
2023-03-03T16:45:22.233Z,7.53
2023-03-03T16:48:17.543Z,7.20
2023-03-03T16:50:52.084Z,7.73
2023-03-03T16:53:27.496Z,7.23
2023-03-03T16:56:02.906Z,8.97
2023-03-03T16:58:41.061Z,7.77
2023-03-03T17:01:12.900Z,7.43
2023-03-03T17:03:52.443Z,7.73
2023-03-03T17:06:24.909Z,8.40
2023-03-03T17:09:23.306Z,7.40
2023-03-03T17:12:05.640Z,7.93
2023-03-03T17:14:53.611Z,8.53
2023-03-03T17:17:27.562Z,8.80
2023-03-03T17:20:05.304Z,8.47
2023-03-03T17:22:46.362Z,9.30
2023-03-03T17:25:21.804Z,8.30
2023-03-03T17:28:00.521Z,8.07
2023-03-03T17:30:32.930Z,8.47
2023-03-03T17:33:25.685Z,8.23
2023-03-03T17:36:02.745Z,7.97
2023-03-03T17:38:43.581Z,8.67
2023-03-03T17:41:15.090Z,8.50
2023-03-03T17:43:47.913Z,7.90
2023-03-03T17:46:29.461Z,8.40
2023-03-03T17:49:22.921Z,7.60
2023-03-03T17:52:14.053Z,7.60
2023-03-03T17:55:06.550Z,8.93
2023-03-03T17:57:46.397Z,8.03
2023-03-03T18:00:27.901Z,6.20
2023-03-03T18:03:11.334Z,7.87
2023-03-03T18:05:56.001Z,8.37
2023-03-03T18:08:39.911Z,7.30
2023-03-03T18:11:35.733Z,7.87
2023-03-03T18:14:19.545Z,8.07
2023-03-03T18:17:20.922Z,7.63
2023-03-03T18:20:04.255Z,8.37
2023-03-03T18:22:34.116Z,7.30
2023-03-03T18:25:03.411Z,8.20
2023-03-03T18:27:34.972Z,7.70
2023-03-03T18:30:27.580Z,8.63
2023-03-03T18:33:08.822Z,7.30
2023-03-03T18:35:38.356Z,8.30
2023-03-03T18:38:30.456Z,8.50
2023-03-03T18:41:00.570Z,8.00
2023-03-03T18:43:55.756Z,7.60
2023-03-03T18:46:49.478Z,7.43
2023-03-03T18:49:18.300Z,7.53
2023-03-03T18:51:53.409Z,8.50
2023-03-03T18:54:31.088Z,7.83
2023-03-03T18:57:17.664Z,8.40
2023-03-03T19:00:11.390Z,7.77
2023-03-03T19:02:46.355Z,6.90
2023-03-03T19:05:23.310Z,7.50
2023-03-03T19:07:59.207Z,7.30
2023-03-03T19:10:55.593Z,7.73
2023-03-03T19:13:46.926Z,7.77
2023-03-03T19:16:37.790Z,7.47
2023-03-03T19:19:11.000Z,7.63
2023-03-03T19:21:40.770Z,7.33
2023-03-03T19:24:27.338Z,7.07
2023-03-03T19:27:16.749Z,6.90
2023-03-03T19:30:02.006Z,7.63
2023-03-03T19:32:44.713Z,7.13
2023-03-03T19:35:22.350Z,6.53
2023-03-03T19:37:56.767Z,8.30
2023-03-03T19:40:30.919Z,7.27
2023-03-03T19:43:06.110Z,7.70
2023-03-03T19:45:44.815Z,7.80
2023-03-03T19:48:21.092Z,7.47
2023-03-03T19:50:55.472Z,7.20
2023-03-03T19:53:32.430Z,8.53
2023-03-03T19:56:11.359Z,7.73
2023-03-03T19:58:47.696Z,7.80
2023-03-03T20:01:19.505Z,6.97
2023-03-03T20:04:08.413Z,8.90
2023-03-03T20:06:45.233Z,7.73
2023-03-03T20:09:21.926Z,8.40
2023-03-03T20:11:59.936Z,7.60
2023-03-03T20:14:39.449Z,8.50
2023-03-03T20:17:22.906Z,7.93
2023-03-03T20:19:57.645Z,7.40
2023-03-03T20:22:35.399Z,7.17
2023-03-03T20:25:14.467Z,7.20
2023-03-03T20:27:48.780Z,8.03
2023-03-03T20:30:28.812Z,8.17
2023-03-03T20:33:07.898Z,8.90
2023-03-03T20:35:44.425Z,7.90
2023-03-03T20:38:23.377Z,8.10
2023-03-03T20:40:56.841Z,8.10
2023-03-03T20:43:36.419Z,8.67
2023-03-03T20:46:10.648Z,8.63
2023-03-03T20:48:52.818Z,9.90
2023-03-03T20:51:27.986Z,10.80
2023-03-03T20:54:00.664Z,9.17
2023-03-03T20:56:33.126Z,8.33
2023-03-03T20:59:11.467Z,8.10
2023-03-03T21:01:44.386Z,7.03
2023-03-03T21:04:23.808Z,7.83
2023-03-03T21:06:53.484Z,8.23
2023-03-03T21:09:25.036Z,7.57
2023-03-03T21:11:53.499Z,9.03
2023-03-03T21:14:22.987Z,8.20
2023-03-03T21:16:51.999Z,7.93
2023-03-03T21:19:29.065Z,9.00
2023-03-03T21:22:01.832Z,8.33
2023-03-03T21:24:49.954Z,8.30
2023-03-03T21:27:29.069Z,8.43
2023-03-03T21:30:05.785Z,7.40
2023-03-03T21:32:39.930Z,7.87
2023-03-03T21:35:10.133Z,8.23
2023-03-03T21:37:51.013Z,7.37
2023-03-03T21:40:23.373Z,8.00
2023-03-03T21:42:52.124Z,7.83
2023-03-03T21:45:21.289Z,8.27
2023-03-03T21:47:49.568Z,7.40
2023-03-03T21:50:20.261Z,6.97
2023-03-03T21:52:50.020Z,8.00
2023-03-03T21:55:18.172Z,7.43
2023-03-03T21:57:46.078Z,8.13
2023-03-03T22:00:14.760Z,8.47
2023-03-03T22:02:42.845Z,8.00
2023-03-03T22:05:10.915Z,7.23
2023-03-03T22:07:38.795Z,7.50
2023-03-03T22:10:09.977Z,7.97
2023-03-03T22:12:37.999Z,8.10
2023-03-03T22:15:07.090Z,8.80
2023-03-03T22:17:34.963Z,8.30
2023-03-03T22:20:03.062Z,7.97
2023-03-03T22:22:30.946Z,7.80
2023-03-03T22:24:58.833Z,7.53
2023-03-03T22:27:28.113Z,7.43
2023-03-03T22:29:56.013Z,8.00
2023-03-03T22:32:23.927Z,8.10
2023-03-03T22:34:51.816Z,8.77
2023-03-03T22:37:19.690Z,8.10
2023-03-03T22:39:47.572Z,8.20
2023-03-03T22:42:15.470Z,9.00
2023-03-03T22:44:45.991Z,8.03
2023-03-03T22:47:14.044Z,8.17
2023-03-03T22:49:41.931Z,8.47
2023-03-03T22:52:09.847Z,8.17
2023-03-03T22:54:37.733Z,8.43
2023-03-03T22:57:05.646Z,9.00
2023-03-03T22:59:34.578Z,9.30
2023-03-03T23:02:03.955Z,9.23
2023-03-03T23:04:33.040Z,8.07
2023-03-03T23:07:01.269Z,9.30
2023-03-03T23:09:29.553Z,8.60
2023-03-03T23:11:57.436Z,9.33
2023-03-03T23:14:25.430Z,8.80
2023-03-03T23:16:53.306Z,9.33
2023-03-03T23:19:22.581Z,8.00
2023-03-03T23:21:50.491Z,7.83
2023-03-03T23:24:18.361Z,9.10
2023-03-03T23:26:46.308Z,8.93
2023-03-03T23:29:14.183Z,8.60
2023-03-03T23:31:42.130Z,8.57
2023-03-03T23:34:10.001Z,8.50
2023-03-03T23:36:39.280Z,8.93
2023-03-03T23:39:07.476Z,9.60
2023-03-03T23:41:36.434Z,9.30
2023-03-03T23:44:04.359Z,8.90
2023-03-03T23:46:32.329Z,9.10
2023-03-03T23:49:02.058Z,10.30
2023-03-03T23:51:30.155Z,9.50
2023-03-03T23:53:59.443Z,9.80
2023-03-03T23:56:27.436Z,8.93
2023-03-03T23:58:55.307Z,9.37
